Time;durP1;ratioP1;P1;durP2;ratioP2;P2;SDS_P1;SDS_P2;PMS_P1;PMS_P2;Temp;Humidity;BMP_temperature;BMP_pressure;BME280_temperature;BME280_humidity;BME280_pressure;Samples;Min_cycle;Max_cycle;Signal;HPM_P1;HPM_P2
2022/01/19 00:02:12;;;;;;;1.67;1.67;;;6.50;99.90;6.70;103025.00;;;;5034815;28;20598;-67
2022/01/19 00:04:46;;;;;;;0.63;0.63;;;6.40;99.90;6.40;103012.00;;;;5051007;28;20236;-66
2022/01/19 00:07:26;;;;;;;0.90;0.90;;;6.20;99.90;6.00;103013.00;;;;5034245;28;20185;-66
2022/01/19 00:09:55;;;;;;;0.63;0.63;;;5.90;99.90;6.30;103011.00;;;;5035769;28;20177;-66
2022/01/19 00:12:27;;;;;;;0.50;0.50;;;5.90;99.90;6.60;103013.00;;;;5035474;28;20229;-66
2022/01/19 00:14:58;;;;;;;0.40;0.40;;;6.00;99.90;6.20;103011.00;;;;5050467;28;20184;-66
2022/01/19 00:17:29;;;;;;;0.50;0.50;;;5.90;99.90;6.30;103002.00;;;;5035316;28;20630;-66
2022/01/19 00:20:00;;;;;;;2.53;2.43;;;5.90;99.90;6.00;103013.00;;;;5050544;28;20211;-66
2022/01/19 00:22:32;;;;;;;0.40;0.40;;;5.70;99.90;5.90;103018.00;;;;5050372;28;20172;-66
2022/01/19 00:25:06;;;;;;;3.90;1.80;;;5.60;99.90;6.00;102995.00;;;;5035095;28;20183;-66
2022/01/19 00:27:39;;;;;;;0.70;0.70;;;5.60;99.90;5.60;103002.00;;;;5050783;28;20172;-66
2022/01/19 00:30:07;;;;;;;0.50;0.50;;;5.40;99.90;5.80;102926.00;;;;5034732;28;20183;-66
2022/01/19 00:32:38;;;;;;;0.40;0.40;;;5.40;99.90;5.70;102968.00;;;;5033571;28;20303;-66
2022/01/19 00:35:09;;;;;;;0.50;0.50;;;5.40;99.90;5.70;102950.00;;;;5033737;28;20176;-67
2022/01/19 00:37:41;;;;;;;0.40;0.40;;;5.30;99.90;5.60;102945.00;;;;5034931;28;20180;-66
2022/01/19 00:40:17;;;;;;;0.40;0.40;;;5.30;99.90;5.50;102935.00;;;;5033621;28;20183;-66
2022/01/19 00:42:54;;;;;;;0.50;0.50;;;5.20;99.90;5.50;102924.00;;;;5033366;28;20227;-66
2022/01/19 00:45:23;;;;;;;0.70;0.70;;;5.20;99.90;5.50;102924.00;;;;5035067;28;20519;-67
2022/01/19 00:47:54;;;;;;;1.67;1.57;;;5.10;99.90;5.40;102917.00;;;;5050015;28;20184;-67
2022/01/19 00:50:28;;;;;;;0.40;0.40;;;5.10;99.90;5.40;102942.00;;;;5050205;28;20191;-66
2022/01/19 00:53:00;;;;;;;0.43;0.43;;;5.00;99.90;5.50;102951.00;;;;5050006;28;20199;-67
2022/01/19 00:55:31;;;;;;;0.40;0.40;;;5.10;99.90;5.60;102965.00;;;;5049192;28;20230;-66
2022/01/19 00:57:57;;;;;;;0.40;0.40;;;5.10;99.90;5.70;102967.00;;;;5034561;28;20192;-67
2022/01/19 01:00:29;;;;;;;0.50;0.50;;;5.20;99.90;5.70;102952.00;;;;5034316;28;20180;-67
2022/01/19 01:03:04;;;;;;;2.60;2.50;;;5.20;99.90;5.70;102951.00;;;;5034533;28;20191;-66
2022/01/19 01:05:39;;;;;;;0.40;0.40;;;5.30;99.90;5.80;102926.00;;;;5049812;28;20184;-67
2022/01/19 01:08:08;;;;;;;0.40;0.40;;;5.40;99.90;5.60;102904.00;;;;5049394;28;20187;-67
2022/01/19 01:10:43;;;;;;;0.50;0.50;;;5.30;99.90;6.00;102895.00;;;;5049874;28;20520;-67
2022/01/19 01:18:33;;;;;;;0.60;0.60;;;5.60;99.90;5.80;102905.00;;;;5049827;28;20196;-67
2022/01/19 01:21:05;;;;;;;0.50;0.50;;;5.50;99.90;5.50;102880.00;;;;5049721;28;20219;-66
2022/01/19 01:23:37;;;;;;;0.50;0.50;;;5.30;99.90;5.40;102884.00;;;;5049365;28;20177;-66
2022/01/19 01:26:11;;;;;;;0.50;0.50;;;5.10;99.90;5.50;102888.00;;;;5034385;28;20179;-66
2022/01/19 01:28:45;;;;;;;0.50;0.50;;;5.10;99.90;5.40;102870.00;;;;5049288;28;20196;-66
2022/01/19 01:31:16;;;;;;;0.40;0.40;;;4.90;99.90;5.00;102845.00;;;;5048732;28;20229;-64
2022/01/19 01:33:47;;;;;;;1.27;1.27;;;4.80;99.90;4.50;102785.00;;;;5034085;28;20186;-66
2022/01/19 01:36:19;;;;;;;1.23;1.23;;;4.60;99.90;4.20;102829.00;;;;5049255;28;20183;-66
2022/01/19 01:38:50;;;;;;;0.40;0.40;;;4.30;99.90;4.30;102826.00;;;;5049450;28;20225;-66
2022/01/19 01:41:23;;;;;;;0.40;0.40;;;4.20;99.90;4.30;102821.00;;;;5033635;28;20196;-66
2022/01/19 01:43:55;;;;;;;0.40;0.40;;;4.20;99.90;4.40;102838.00;;;;5048279;28;20693;-66
2022/01/19 01:46:45;;;;;;;0.40;0.40;;;4.20;99.90;4.30;102848.00;;;;5049359;28;20183;-66
2022/01/19 01:49:24;;;;;;;0.30;0.30;;;4.20;99.90;4.50;102848.00;;;;5048946;28;20689;-66
2022/01/19 01:54:45;;;;;;;1.03;1.03;;;4.20;99.90;4.40;102872.00;;;;5033640;28;20190;-66
2022/01/19 01:57:13;;;;;;;0.40;0.40;;;4.10;99.90;4.30;102881.00;;;;5048883;28;20190;-66
2022/01/19 01:59:42;;;;;;;1.03;1.03;;;4.10;99.90;4.10;102821.00;;;;5048829;28;20270;-66
2022/01/19 02:02:11;;;;;;;1.00;1.00;;;4.10;99.90;3.80;102867.00;;;;5032362;28;20658;-66
2022/01/19 02:04:41;;;;;;;0.40;0.40;;;4.00;99.90;3.80;102859.00;;;;5048820;28;20176;-66
2022/01/19 02:09:51;;;;;;;0.50;0.50;;;3.80;99.90;3.80;102852.00;;;;5047190;28;20183;-66
2022/01/19 02:23:49;;;;;;;0.30;0.30;;;4.10;99.90;4.60;102825.00;;;;5037408;28;20193;-66
2022/01/19 02:26:24;;;;;;;2.60;2.50;;;4.30;99.90;4.40;102825.00;;;;5048517;28;20191;-65
2022/01/19 02:42:55;;;;;;;0.83;0.83;;;4.30;99.90;4.50;102750.00;;;;5031793;28;20200;-66
2022/01/19 02:50:47;;;;;;;0.83;0.83;;;4.10;99.90;3.90;102688.00;;;;5033036;28;20602;-66
2022/01/19 02:53:18;;;;;;;3.47;3.23;;;4.10;99.90;4.20;102728.00;;;;5031930;28;20246;-66
2022/01/19 02:55:49;;;;;;;0.80;0.80;;;4.20;99.90;4.00;102736.00;;;;5032186;28;20213;-65
2022/01/19 02:58:23;;;;;;;1.50;1.07;;;4.20;99.90;4.20;102728.00;;;;5031987;28;20610;-65
2022/01/19 03:09:26;;;;;;;1.90;1.80;;;4.30;99.90;4.40;102709.00;;;;5032675;28;20612;-64
2022/01/19 03:11:57;;;;;;;2.63;2.43;;;4.30;99.90;3.90;102717.00;;;;5031349;28;20636;-65
2022/01/19 03:14:31;;;;;;;0.60;0.60;;;4.20;99.90;4.20;102659.00;;;;5031851;28;20171;-64
2022/01/19 03:17:03;;;;;;;1.13;1.13;;;4.20;99.90;4.40;102716.00;;;;5032631;28;20222;-64
2022/01/19 03:19:36;;;;;;;0.70;0.70;;;4.30;99.90;4.80;102705.00;;;;5017561;28;20270;-64
2022/01/19 03:22:07;;;;;;;0.60;0.60;;;4.40;99.90;4.40;102699.00;;;;5035108;28;20188;-64
2022/01/19 03:24:38;;;;;;;0.50;0.50;;;4.50;99.90;4.10;102699.00;;;;5036371;28;20275;-65
2022/01/19 03:27:07;;;;;;;1.00;1.00;;;4.40;99.90;4.00;102696.00;;;;5034955;28;20181;-65
2022/01/19 03:29:40;;;;;;;1.37;1.37;;;4.30;99.90;3.90;102693.00;;;;5035050;28;20646;-65
2022/01/19 03:32:07;;;;;;;0.93;0.90;;;4.20;99.90;4.20;102682.00;;;;5034760;28;20236;-65
2022/01/19 03:34:39;;;;;;;1.00;0.83;;;4.30;99.90;4.10;102625.00;;;;5036156;28;20277;-65
2022/01/19 03:37:11;;;;;;;0.87;0.87;;;4.30;99.90;4.00;102672.00;;;;5018660;28;20186;-65
2022/01/19 03:39:40;;;;;;;1.90;1.80;;;4.30;99.90;4.20;102679.00;;;;5034839;28;20270;-65
2022/01/19 03:42:14;;;;;;;2.20;2.00;;;4.30;99.90;4.20;102624.00;;;;5034515;28;20202;-65
2022/01/19 03:44:40;;;;;;;1.17;1.17;;;4.30;99.90;3.80;102640.00;;;;5034845;28;20522;-65
2022/01/19 03:47:08;;;;;;;0.73;0.73;;;4.20;99.90;4.10;102664.00;;;;5034999;28;20190;-66
2022/01/19 03:49:36;;;;;;;1.63;1.53;;;4.30;99.90;4.20;102649.00;;;;5036013;28;20194;-65
2022/01/19 03:52:12;;;;;;;1.90;1.80;;;4.30;99.90;3.90;102616.00;;;;5018014;28;20328;-65
2022/01/19 03:54:45;;;;;;;2.63;2.43;;;4.20;99.90;3.90;102650.00;;;;5035539;28;20183;-65
2022/01/19 03:57:16;;;;;;;1.87;1.80;;;4.10;99.90;4.30;102659.00;;;;5034310;28;20279;-66
2022/01/19 03:59:47;;;;;;;0.40;0.40;;;4.30;99.90;3.90;102662.00;;;;5034673;28;20179;-66
2022/01/19 04:02:15;;;;;;;0.73;0.73;;;4.20;99.90;4.00;102651.00;;;;5035514;28;20183;-66
2022/01/19 04:04:54;;;;;;;1.70;1.60;;;4.20;99.90;4.00;102648.00;;;;5035492;28;20180;-65
2022/01/19 04:07:28;;;;;;;1.60;1.60;;;4.20;99.90;4.00;102657.00;;;;5035617;28;20206;-66
2022/01/19 04:09:57;;;;;;;1.10;0.57;;;4.20;99.90;4.60;102667.00;;;;5033922;28;20182;-66
2022/01/19 04:12:42;;;;;;;1.70;1.60;;;4.40;99.90;4.40;102650.00;;;;5035258;28;20210;-65
2022/01/19 04:15:16;;;;;;;0.97;0.97;;;4.50;99.90;4.10;102659.00;;;;5020058;28;20190;-66
2022/01/19 04:17:51;;;;;;;0.50;0.50;;;4.30;99.90;4.00;102655.00;;;;5034424;28;20175;-65
2022/01/19 04:20:19;;;;;;;0.40;0.40;;;4.20;99.90;4.20;102659.00;;;;5034419;28;20271;-66
2022/01/19 04:22:53;;;;;;;4.03;2.80;;;4.30;99.90;3.60;102635.00;;;;5034053;28;20179;-66
2022/01/19 04:25:24;;;;;;;3.20;2.43;;;4.20;99.90;4.00;102655.00;;;;5034149;28;20182;-65
2022/01/19 04:27:55;;;;;;;0.30;0.30;;;4.20;99.90;4.60;102630.00;;;;5035222;28;20536;-66
2022/01/19 04:30:27;;;;;;;1.27;1.17;;;4.50;99.90;5.00;102653.00;;;;5033924;28;20174;-66
2022/01/19 04:33:06;;;;;;;3.07;2.87;;;4.60;99.90;4.40;102651.00;;;;5035395;28;20222;-66
2022/01/19 04:35:47;;;;;;;1.33;1.23;;;4.50;99.90;4.60;102647.00;;;;5035197;28;20265;-65
2022/01/19 04:44:36;;;;;;;0.93;0.80;;;4.40;99.90;4.30;102606.00;;;;5032997;28;20201;-66
2022/01/19 04:47:42;;;;;;;0.30;0.30;;;4.30;99.90;4.10;102618.00;;;;5033895;28;20182;-66
2022/01/19 05:06:52;;;;;;;1.50;0.87;;;4.70;99.90;4.70;102605.00;;;;5033537;28;20196;-63
2022/01/19 05:09:52;;;;;;;1.07;0.70;;;4.80;99.90;4.30;102591.00;;;;5034452;28;20183;-65
2022/01/19 05:15:03;;;;;;;3.70;3.27;;;4.70;99.90;3.70;102577.00;;;;5033473;28;20239;-65
2022/01/19 05:17:29;;;;;;;2.43;2.30;;;4.40;99.90;3.70;102588.00;;;;5033395;28;20192;-64
2022/01/19 05:19:58;;;;;;;0.30;0.30;;;4.20;99.90;4.30;102560.00;;;;5033174;28;20172;-65
2022/01/19 05:22:24;;;;;;;1.70;1.57;;;4.30;99.90;4.00;102585.00;;;;5032430;28;20262;-66
2022/01/19 05:24:53;;;;;;;0.50;0.50;;;4.30;99.90;4.50;102587.00;;;;5032963;28;20267;-65
2022/01/19 05:27:21;;;;;;;12.00;11.13;;;4.40;99.90;4.20;102572.00;;;;5034436;28;20180;-65
2022/01/19 05:29:56;;;;;;;6.10;4.00;;;4.50;99.90;4.40;102582.00;;;;5034171;28;20292;-65
2022/01/19 05:32:23;;;;;;;4.10;3.97;;;4.60;99.90;4.60;102579.00;;;;5034294;28;20206;-65
2022/01/19 05:34:54;;;;;;;0.30;0.30;;;4.50;99.90;4.50;102579.00;;;;5034267;28;20668;-66
2022/01/19 05:37:21;;;;;;;0.30;0.30;;;4.50;99.90;4.40;102576.00;;;;5034249;28;20213;-66
2022/01/19 05:39:49;;;;;;;0.50;0.50;;;4.60;99.90;4.20;102498.00;;;;5034095;28;20561;-66
2022/01/19 05:42:16;;;;;;;0.30;0.30;;;4.40;99.90;4.30;102571.00;;;;5033623;28;20231;-65
2022/01/19 05:44:47;;;;;;;1.57;0.93;;;4.40;99.90;4.10;102524.00;;;;5032747;28;20175;-65
2022/01/19 05:47:15;;;;;;;0.30;0.30;;;4.50;99.90;4.70;102562.00;;;;5032802;28;20190;-64
2022/01/19 05:49:44;;;;;;;0.80;0.80;;;4.60;99.90;5.00;102545.00;;;;5032081;28;20542;-65
2022/01/19 05:52:16;;;;;;;2.00;1.90;;;4.80;99.90;4.70;102549.00;;;;5032710;28;20567;-65
2022/01/19 05:54:45;;;;;;;0.30;0.30;;;4.70;99.90;4.70;102549.00;;;;5032622;28;20189;-65
2022/01/19 05:57:11;;;;;;;2.20;2.10;;;4.70;99.90;5.00;102501.00;;;;5032508;28;20628;-66
2022/01/19 05:59:43;;;;;;;0.30;0.30;;;4.90;99.90;5.30;102559.00;;;;5032432;28;20177;-65
2022/01/19 06:02:12;;;;;;;1.40;1.33;;;5.00;99.90;5.30;102544.00;;;;5032375;28;20203;-66
2022/01/19 06:04:43;;;;;;;0.87;0.87;;;5.20;99.90;5.00;102553.00;;;;5033396;28;20223;-64
2022/01/19 06:07:15;;;;;;;0.30;0.30;;;5.00;99.90;5.10;102547.00;;;;5032926;28;20188;-65
2022/01/19 06:12:14;;;;;;;0.40;0.40;;;4.90;99.90;4.90;102538.00;;;;5033638;28;20698;-64
2022/01/19 06:14:43;;;;;;;4.00;3.80;;;4.90;99.90;4.60;102547.00;;;;5031960;28;20179;-64
2022/01/19 06:17:14;;;;;;;0.30;0.30;;;4.80;99.90;4.90;102535.00;;;;5033404;28;20698;-65
2022/01/19 06:19:49;;;;;;;0.37;0.37;;;4.80;99.90;4.40;102517.00;;;;5033159;28;20180;-64
2022/01/19 06:22:18;;;;;;;0.30;0.30;;;4.80;99.90;4.50;102533.00;;;;5033509;28;20175;-65
2022/01/19 06:25:45;;;;;;;4.07;2.17;;;4.70;99.90;4.50;102518.00;;;;5033804;28;20180;-64
2022/01/19 06:28:16;;;;;;;0.60;0.60;;;4.60;99.90;5.00;102526.00;;;;5038571;28;20178;-64
2022/01/19 06:30:47;;;;;;;1.53;1.53;;;4.90;99.90;4.20;102473.00;;;;5033167;28;20173;-64
2022/01/19 06:33:14;;;;;;;0.43;0.43;;;4.60;99.90;4.10;102513.00;;;;5031665;28;20714;-64
2022/01/19 06:35:43;;;;;;;0.23;0.23;;;4.40;99.90;4.00;102502.00;;;;5032227;28;20180;-64
2022/01/19 06:38:14;;;;;;;0.30;0.30;;;4.30;99.90;4.10;102522.00;;;;5032234;28;20220;-65
2022/01/19 06:40:40;;;;;;;0.30;0.30;;;4.30;99.90;3.90;102512.00;;;;5033237;28;20235;-63
2022/01/19 06:43:06;;;;;;;1.97;0.60;;;4.30;99.90;4.00;102498.00;;;;5015493;28;20187;-64
2022/01/19 06:45:32;;;;;;;1.33;1.30;;;4.40;99.90;4.10;102457.00;;;;5033217;28;20237;-64
2022/01/19 06:48:01;;;;;;;0.90;0.90;;;4.40;99.90;4.20;102496.00;;;;5031774;28;20188;-65
2022/01/19 06:50:31;;;;;;;0.50;0.50;;;4.40;99.90;4.10;102480.00;;;;5033639;28;20192;-64
2022/01/19 06:53:05;;;;;;;0.30;0.30;;;4.40;99.90;3.90;102476.00;;;;5032282;28;20218;-64
2022/01/19 06:55:39;;;;;;;0.40;0.40;;;4.30;99.90;4.10;102446.00;;;;5052343;28;20183;-64
2022/01/19 06:58:10;;;;;;;0.20;0.20;;;4.30;99.90;4.00;102493.00;;;;5037238;28;20225;-66
2022/01/19 07:00:42;;;;;;;0.20;0.20;;;4.30;99.90;4.20;102491.00;;;;5052064;28;20199;-65
2022/01/19 07:03:13;;;;;;;0.80;0.80;;;4.40;99.90;4.30;102489.00;;;;5037158;28;20172;-65
2022/01/19 07:05:45;;;;;;;1.13;1.03;;;4.40;99.90;3.80;102478.00;;;;5037043;28;20163;-65
2022/01/19 07:08:19;;;;;;;0.50;0.50;;;4.30;99.90;4.10;102487.00;;;;5035739;28;20183;-65
2022/01/19 07:10:50;;;;;;;2.53;2.43;;;4.30;99.90;4.20;102476.00;;;;5036624;28;20568;-66
2022/01/19 07:13:19;;;;;;;0.40;0.40;;;4.40;99.90;4.30;102466.00;;;;5035510;28;20215;-65
2022/01/19 07:15:53;;;;;;;0.83;0.83;;;4.40;99.90;4.80;102478.00;;;;5035689;28;20183;-65
2022/01/19 07:18:28;;;;;;;0.50;0.50;;;4.70;99.90;4.60;102469.00;;;;5035049;28;20184;-66
2022/01/19 07:21:02;;;;;;;0.57;0.57;;;4.80;99.90;4.40;102464.00;;;;5035774;28;20224;-66
2022/01/19 07:23:34;;;;;;;0.30;0.30;;;4.70;99.90;4.10;102459.00;;;;5035002;28;20196;-66
2022/01/19 07:26:08;;;;;;;0.30;0.30;;;4.50;99.90;4.80;102450.00;;;;5036463;28;20178;-66
2022/01/19 07:28:45;;;;;;;0.20;0.20;;;4.70;99.90;4.70;102458.00;;;;5036738;28;20182;-66
2022/01/19 07:31:16;;;;;;;0.40;0.40;;;4.80;99.90;4.50;102455.00;;;;5035961;28;20195;-66
2022/01/19 07:34:08;;;;;;;1.10;1.10;;;4.70;99.90;4.20;102438.00;;;;5035380;28;20649;-67
2022/01/19 07:36:44;;;;;;;1.83;1.70;;;4.70;99.90;4.30;102434.00;;;;5035600;28;20180;-66
2022/01/19 07:39:12;;;;;;;2.00;1.80;;;4.70;99.90;4.40;102438.00;;;;5030347;28;20191;-67
2022/01/19 07:41:46;;;;;;;0.30;0.30;;;4.70;99.90;4.90;102435.00;;;;5015434;28;20505;-67
2022/01/19 07:44:24;;;;;;;0.30;0.30;;;4.80;99.90;5.20;102440.00;;;;5015215;28;20235;-67
2022/01/19 07:47:00;;;;;;;0.93;0.93;;;5.00;99.90;4.80;102435.00;;;;5014700;28;20211;-66
2022/01/19 07:49:37;;;;;;;0.70;0.70;;;5.10;99.90;4.50;102451.00;;;;5016470;28;20182;-66
2022/01/19 07:52:14;;;;;;;3.70;3.43;;;4.80;99.90;4.30;102450.00;;;;5014989;28;20204;-66
2022/01/19 07:54:45;;;;;;;1.37;1.27;;;4.70;99.90;4.60;102449.00;;;;5015534;28;20248;-66
2022/01/19 07:57:17;;;;;;;0.57;0.57;;;4.80;99.90;4.30;102440.00;;;;5016256;28;20221;-66
2022/01/19 07:59:43;;;;;;;4.13;3.20;;;4.70;99.90;4.60;102451.00;;;;4998327;28;20185;-65
2022/01/19 08:02:14;;;;;;;0.73;0.73;;;4.70;99.90;5.60;102452.00;;;;5015025;28;20177;-66
2022/01/19 08:04:45;;;;;;;2.93;2.53;;;5.20;99.90;4.40;102442.00;;;;5015594;28;20180;-65
2022/01/19 08:07:14;;;;;;;0.30;0.30;;;5.00;99.90;4.80;102439.00;;;;5014622;28;20268;-66
2022/01/19 08:09:40;;;;;;;1.03;0.93;;;5.00;99.90;4.70;102441.00;;;;5014601;28;20280;-66
2022/01/19 08:12:12;;;;;;;0.93;0.93;;;5.00;99.90;4.40;102436.00;;;;5014672;28;20220;-66
2022/01/19 08:14:41;;;;;;;0.60;0.60;;;4.90;99.90;4.40;102443.00;;;;5014511;28;20184;-66
2022/01/19 08:17:07;;;;;;;0.30;0.30;;;4.80;99.90;4.70;102437.00;;;;4998284;28;20183;-67
2022/01/19 08:19:43;;;;;;;5.40;4.90;;;4.90;99.90;4.90;102431.00;;;;5014483;28;20681;-67
2022/01/19 08:22:26;;;;;;;0.93;0.93;;;5.10;99.90;4.30;102435.00;;;;5014644;28;20180;-65
2022/01/19 08:25:01;;;;;;;0.93;0.83;;;4.90;99.90;4.50;102441.00;;;;5014517;28;20195;-66
2022/01/19 08:27:33;;;;;;;0.30;0.30;;;4.80;99.90;5.10;102442.00;;;;4998358;28;20182;-65
2022/01/19 08:30:05;;;;;;;2.00;1.90;;;5.00;99.90;4.90;102436.00;;;;5014268;28;20268;-65
2022/01/19 08:32:37;;;;;;;0.30;0.30;;;5.00;99.90;4.50;102400.00;;;;5014324;28;20256;-66
2022/01/19 08:35:10;;;;;;;3.33;3.13;;;5.00;99.90;4.70;102449.00;;;;5015345;28;20195;-65
2022/01/19 08:37:36;;;;;;;0.90;0.90;;;4.90;99.90;4.90;102456.00;;;;5014321;28;20187;-65
2022/01/19 08:40:07;;;;;;;3.93;3.60;;;5.00;99.90;4.60;102448.00;;;;5014112;28;20181;-65
2022/01/19 08:42:40;;;;;;;0.30;0.30;;;5.00;99.90;4.40;102433.00;;;;5014952;28;20253;-66
2022/01/19 08:45:08;;;;;;;0.80;0.80;;;4.80;99.90;5.60;102439.00;;;;5013974;28;20195;-66
2022/01/19 08:47:36;;;;;;;0.50;0.50;;;5.20;99.90;5.60;102432.00;;;;5016334;28;20682;-66
2022/01/19 08:50:06;;;;;;;3.87;3.33;;;5.50;99.90;5.30;102429.00;;;;5025435;28;20197;-65
2022/01/19 08:52:34;;;;;;;11.50;5.00;;;5.50;99.90;4.90;102445.00;;;;5033669;28;20190;-67
2022/01/19 08:55:07;;;;;;;0.47;0.47;;;5.30;99.90;4.60;102431.00;;;;5035050;28;20521;-66
2022/01/19 08:57:35;;;;;;;0.77;0.77;;;5.00;99.90;5.00;102438.00;;;;5034000;28;20717;-65
2022/01/19 09:00:07;;;;;;;3.07;2.60;;;5.00;99.90;4.60;102419.00;;;;5033538;28;20222;-69
2022/01/19 09:02:38;;;;;;;0.30;0.30;;;5.00;99.90;4.70;102433.00;;;;5016838;28;20204;-65
2022/01/19 09:05:12;;;;;;;1.97;1.97;;;5.00;99.90;5.30;102433.00;;;;5035131;28;20241;-64
2022/01/19 09:07:41;;;;;;;1.37;1.37;;;5.00;99.90;4.40;102425.00;;;;5033495;28;20191;-64
2022/01/19 09:10:20;;;;;;;1.60;1.50;;;4.90;99.90;5.00;102426.00;;;;5034491;28;20170;-65
2022/01/19 09:12:46;;;;;;;0.40;0.40;;;5.00;99.90;5.10;102397.00;;;;5032450;28;20223;-66
2022/01/19 09:15:18;;;;;;;0.30;0.30;;;5.20;99.90;5.20;102428.00;;;;5033043;28;20708;-65
2022/01/19 09:17:52;;;;;;;0.30;0.30;;;5.10;99.90;5.30;102421.00;;;;5033807;28;20181;-65
2022/01/19 09:20:19;;;;;;;0.40;0.40;;;5.40;99.90;5.40;102414.00;;;;5033477;28;20189;-65
2022/01/19 09:22:52;;;;;;;0.30;0.30;;;5.30;99.90;4.90;102405.00;;;;5034217;28;20275;-65
2022/01/19 09:25:21;;;;;;;1.60;1.50;;;5.20;99.90;4.70;102398.00;;;;5033816;28;20192;-62
2022/01/19 09:27:52;;;;;;;0.50;0.50;;;5.10;99.90;4.70;102397.00;;;;5049439;28;20667;-61
2022/01/19 09:30:24;;;;;;;1.67;1.63;;;5.10;99.90;4.80;102395.00;;;;5034209;28;20216;-60
2022/01/19 09:33:07;;;;;;;2.20;2.10;;;5.00;99.90;4.70;102340.00;;;;5032988;28;20218;-60
2022/01/19 09:38:29;;;;;;;0.57;0.57;;;5.20;99.90;4.90;102332.00;;;;5034222;28;20172;-63
2022/01/19 09:41:01;;;;;;;0.83;0.73;;;5.20;99.90;4.70;102383.00;;;;5033820;28;20559;-60
2022/01/19 09:43:30;;;;;;;0.40;0.40;;;5.10;99.90;4.90;102373.00;;;;5032629;28;20194;-62
2022/01/19 09:46:22;;;;;;;2.33;0.63;;;5.20;99.90;4.90;102361.00;;;;5033473;28;20181;-65
2022/01/19 09:48:50;;;;;;;1.90;1.77;;;5.10;99.90;4.60;102306.00;;;;5033190;28;20202;-65
2022/01/19 09:51:18;;;;;;;0.37;0.37;;;5.10;99.90;5.00;102296.00;;;;5032561;28;20257;-67
2022/01/19 09:53:46;;;;;;;2.27;2.10;;;5.10;99.90;4.70;102346.00;;;;5032506;28;20191;-64
2022/01/19 09:56:16;;;;;;;0.20;0.20;;;5.00;99.90;4.80;102332.00;;;;5032273;28;20257;-65
2022/01/19 09:58:47;;;;;;;1.07;0.97;;;5.00;99.90;5.10;102339.00;;;;5032430;28;20179;-63
2022/01/19 10:01:24;;;;;;;2.10;2.00;;;5.10;99.90;4.90;102289.00;;;;5032502;28;20603;-64
2022/01/19 10:03:51;;;;;;;0.40;0.40;;;5.20;99.90;4.70;102345.00;;;;5032239;28;20562;-65
2022/01/19 10:06:23;;;;;;;2.63;1.90;;;5.10;99.90;4.60;102334.00;;;;5032368;28;20208;-63
2022/01/19 10:08:55;;;;;;;0.40;0.40;;;5.10;99.90;4.80;102332.00;;;;5032402;28;20174;-65
2022/01/19 10:11:28;;;;;;;0.30;0.30;;;5.10;99.90;5.10;102336.00;;;;5031420;28;20528;-67
2022/01/19 10:17:03;;;;;;;2.10;2.00;;;5.20;99.90;5.30;102327.00;;;;5032698;28;20203;-67
2022/01/19 10:19:51;;;;;;;2.17;1.63;;;5.40;99.90;5.30;102331.00;;;;5033417;28;20182;-67
2022/01/19 10:33:18;;;;;;;0.20;0.20;;;5.10;99.90;5.00;102301.00;;;;5070640;28;20604;-67
2022/01/19 10:35:49;;;;;;;0.23;0.23;;;5.20;99.90;5.90;102346.00;;;;5049572;28;20215;-68
2022/01/19 10:38:20;;;;;;;1.97;1.63;;;5.60;99.90;6.10;102338.00;;;;5048924;28;20632;-68
2022/01/19 10:41:12;;;;;;;1.87;1.77;;;5.90;99.90;5.90;102333.00;;;;5030316;28;20253;-68
2022/01/19 10:43:45;;;;;;;0.27;0.27;;;6.00;99.90;5.60;102332.00;;;;5026019;28;20210;-68
2022/01/19 10:46:34;;;;;;;0.50;0.50;;;5.80;99.90;5.60;102290.00;;;;5030902;28;20256;-68
2022/01/19 10:49:09;;;;;;;1.07;1.07;;;5.80;99.90;6.20;102326.00;;;;5049045;28;20185;-67
2022/01/19 10:51:48;;;;;;;1.57;0.97;;;6.00;99.90;5.50;102310.00;;;;5065615;28;20263;-68
2022/01/19 10:54:22;;;;;;;0.80;0.80;;;5.70;99.90;5.20;102312.00;;;;5022175;28;20215;-68
2022/01/19 10:56:57;;;;;;;2.13;1.17;;;5.50;99.90;5.70;102314.00;;;;5025929;28;20197;-68
2022/01/19 10:59:32;;;;;;;2.73;1.33;;;5.70;99.90;6.30;102291.00;;;;5012240;28;20185;-68
2022/01/19 11:02:03;;;;;;;0.80;0.80;;;5.90;99.90;5.50;102306.00;;;;5058195;28;20289;-68
2022/01/19 11:04:39;;;;;;;1.53;1.30;;;5.80;99.90;6.10;102291.00;;;;5065809;28;20183;-68
2022/01/19 11:07:13;;;;;;;0.67;0.67;;;6.00;99.90;5.40;102242.00;;;;5065367;28;20182;-69
2022/01/19 11:09:56;;;;;;;0.83;0.83;;;5.70;99.90;5.70;102291.00;;;;5040256;28;20514;-69
2022/01/19 11:12:26;;;;;;;0.77;0.77;;;5.70;99.90;5.60;102286.00;;;;5027774;28;20209;-69
2022/01/19 11:14:52;;;;;;;2.30;2.10;;;5.80;99.90;5.40;102271.00;;;;5028914;28;20179;-68
2022/01/19 11:17:18;;;;;;;0.30;0.30;;;5.70;99.90;5.60;102257.00;;;;5028054;28;20875;-69
2022/01/19 11:19:44;;;;;;;0.20;0.20;;;5.70;99.90;6.50;102235.00;;;;5029071;28;20267;-69
2022/01/19 11:22:22;;;;;;;0.57;0.57;;;6.10;99.90;6.60;102274.00;;;;5028687;28;20661;-68
2022/01/19 11:25:23;;;;;;;2.20;2.00;;;6.40;99.90;6.20;102253.00;;;;5027749;28;20194;-68
2022/01/19 11:27:51;;;;;;;0.43;0.43;;;6.50;99.90;6.40;102255.00;;;;5028660;28;20289;-68
2022/01/19 11:30:26;;;;;;;2.77;1.90;;;6.50;99.90;6.00;102205.00;;;;5045044;28;20206;-68
2022/01/19 11:33:24;;;;;;;3.73;1.10;;;6.30;99.90;6.30;102238.00;;;;5029247;28;20244;-68
2022/01/19 11:36:04;;;;;;;1.57;1.57;;;6.30;99.90;5.40;102232.00;;;;5028413;28;20182;-68
2022/01/19 11:38:45;;;;;;;0.50;0.40;;;6.00;99.90;5.90;102238.00;;;;5038832;28;20190;-68
2022/01/19 11:41:10;;;;;;;3.77;2.60;;;6.10;99.90;6.40;102239.00;;;;5043810;28;20241;-68
2022/01/19 11:43:48;;;;;;;0.40;0.40;;;6.40;99.90;6.80;102226.00;;;;5021519;28;20178;-68
2022/01/19 11:46:31;;;;;;;2.50;1.70;;;6.60;99.90;6.10;102229.00;;;;5030830;28;20201;-67
2022/01/19 11:49:02;;;;;;;0.70;0.70;;;6.50;99.90;6.30;102216.00;;;;5014989;28;20159;-67
2022/01/19 11:51:55;;;;;;;0.37;0.37;;;6.50;99.90;6.80;102211.00;;;;5030304;28;20210;-67
2022/01/19 11:54:33;;;;;;;8.10;5.73;;;6.50;99.90;6.30;102226.00;;;;5014810;28;20646;-67
2022/01/19 11:57:03;;;;;;;4.23;3.83;;;6.70;99.90;5.20;102164.00;;;;5015728;28;20666;-66
2022/01/19 11:59:47;;;;;;;1.73;1.73;;;6.10;99.90;5.80;102191.00;;;;5014483;28;20282;-68
2022/01/19 12:02:32;;;;;;;1.00;1.00;;;6.00;99.90;6.20;102204.00;;;;5015197;28;20243;-68
2022/01/19 12:05:21;;;;;;;3.07;2.83;;;6.20;99.90;6.00;102201.00;;;;5016332;28;20186;-67
2022/01/19 12:08:03;;;;;;;5.30;4.63;;;6.20;99.90;6.40;102152.00;;;;5030880;28;20228;-68
2022/01/19 12:10:32;;;;;;;2.50;2.27;;;6.50;99.90;6.60;102197.00;;;;5030944;28;20179;-67
2022/01/19 12:16:17;;;;;;;1.33;1.27;;;6.40;99.90;6.20;102172.00;;;;5015968;28;20281;-67
2022/01/19 12:19:19;;;;;;;3.87;2.87;;;6.40;99.90;5.90;102120.00;;;;5014348;28;20643;-68
2022/01/19 12:21:54;;;;;;;9.87;6.67;;;6.50;99.90;5.60;102164.00;;;;5014220;28;20551;-68
2022/01/19 12:24:42;;;;;;;9.93;6.17;;;6.20;99.90;5.30;102171.00;;;;5014266;28;20640;-67
2022/01/19 12:27:16;;;;;;;10.80;6.33;;;5.90;99.90;5.70;102167.00;;;;5015328;28;20628;-67
2022/01/19 12:29:45;;;;;;;2.80;2.53;;;6.00;99.90;5.50;102154.00;;;;5030669;28;20276;-67
2022/01/19 12:32:16;;;;;;;8.40;5.17;;;6.00;99.90;5.50;102154.00;;;;5013887;28;20735;-67
2022/01/19 12:34:51;;;;;;;1.53;1.47;;;6.00;99.90;5.70;102145.00;;;;5015769;28;20685;-65
2022/01/19 12:37:40;;;;;;;8.40;6.53;;;6.00;99.90;5.90;102096.00;;;;5013816;28;20179;-67
2022/01/19 12:40:18;;;;;;;0.40;0.40;;;6.10;99.90;6.30;102102.00;;;;5014138;28;20189;-67
2022/01/19 12:42:54;;;;;;;3.83;1.53;;;6.20;99.90;6.10;102138.00;;;;5015316;28;20278;-67
2022/01/19 12:45:55;;;;;;;0.53;0.53;;;6.30;99.90;6.30;102126.00;;;;5014237;28;20193;-67
2022/01/19 12:48:48;;;;;;;1.20;1.10;;;6.40;99.90;6.80;102108.00;;;;5013270;28;20203;-67
2022/01/19 12:51:52;;;;;;;3.40;3.20;;;6.80;99.90;6.10;102105.00;;;;5012515;28;20212;-68
2022/01/19 12:54:32;;;;;;;15.80;13.90;;;6.60;99.90;6.00;102121.00;;;;5009074;28;20582;-68
2022/01/19 12:57:04;;;;;;;5.53;3.67;;;6.50;99.90;6.10;102107.00;;;;5013754;28;20232;-67
2022/01/19 12:59:36;;;;;;;2.97;2.07;;;6.50;99.90;6.00;102113.00;;;;5014668;28;20325;-68
2022/01/19 13:02:08;;;;;;;4.83;3.60;;;6.50;99.90;6.40;102109.00;;;;5013398;28;20202;-67
2022/01/19 13:04:40;;;;;;;0.20;0.20;;;6.50;99.90;6.70;102104.00;;;;5012858;28;20189;-66
2022/01/19 13:07:24;;;;;;;2.13;1.93;;;6.70;99.90;6.40;102102.00;;;;5011880;28;20190;-66
2022/01/19 13:12:42;;;;;;;2.97;1.87;;;6.70;99.90;6.00;102092.00;;;;5014335;28;20202;-67